createdAt,value
2019-01-11T00:00:15.250Z,6.40
2019-01-11T00:02:47.005Z,6.40
2019-01-11T00:05:18.737Z,6.50
2019-01-11T00:07:50.423Z,6.50
2019-01-11T00:10:22.101Z,6.50
2019-01-11T00:12:53.809Z,6.50
2019-01-11T00:15:25.579Z,6.50
2019-01-11T00:17:57.703Z,6.50
2019-01-11T00:20:29.365Z,6.50
2019-01-11T00:23:01.059Z,6.50
2019-01-11T00:25:32.729Z,6.50
2019-01-11T00:28:04.593Z,6.50
2019-01-11T00:30:36.397Z,6.50
2019-01-11T00:33:08.086Z,6.50
2019-01-11T00:35:39.769Z,6.50
2019-01-11T00:38:11.459Z,6.50
2019-01-11T00:40:43.155Z,6.50
2019-01-11T00:43:15.367Z,6.60
2019-01-11T00:45:47.246Z,6.60
2019-01-11T00:48:18.919Z,6.50
2019-01-11T00:50:50.889Z,6.60
2019-01-11T00:53:22.580Z,6.60
2019-01-11T00:55:54.244Z,6.60
2019-01-11T00:58:25.926Z,6.60
2019-01-11T01:00:57.603Z,6.60
2019-01-11T01:03:29.278Z,6.60
2019-01-11T01:06:00.948Z,6.70
2019-01-11T01:08:32.641Z,6.70
2019-01-11T01:11:04.708Z,6.70
2019-01-11T01:13:36.388Z,6.70
2019-01-11T01:16:08.075Z,6.70
2019-01-11T01:18:39.853Z,6.70
2019-01-11T01:21:11.706Z,6.70
2019-01-11T01:23:43.462Z,6.70
2019-01-11T01:26:15.142Z,6.70
2019-01-11T01:28:46.846Z,6.70
2019-01-11T01:31:18.540Z,6.70
2019-01-11T01:33:50.323Z,6.70
2019-01-11T01:36:22.147Z,6.70
2019-01-11T01:38:53.922Z,6.70
2019-01-11T01:41:25.629Z,6.70
2019-01-11T01:43:57.401Z,6.80
2019-01-11T01:46:29.158Z,6.80
2019-01-11T01:49:00.840Z,6.80
2019-01-11T01:51:32.596Z,6.80
2019-01-11T01:54:04.624Z,6.70
2019-01-11T01:56:36.268Z,6.70
2019-01-11T01:59:07.977Z,6.80
2019-01-11T02:01:39.655Z,6.70
2019-01-11T02:04:11.399Z,6.80
2019-01-11T02:06:43.045Z,6.80
2019-01-11T02:09:14.744Z,6.80
2019-01-11T02:11:46.907Z,6.80
2019-01-11T02:14:18.655Z,6.80
2019-01-11T02:16:50.661Z,6.80
2019-01-11T02:19:22.535Z,6.80
2019-01-11T02:21:54.229Z,6.80
2019-01-11T02:24:25.919Z,6.70
2019-01-11T02:26:57.600Z,6.70
2019-01-11T02:29:29.324Z,6.80
2019-01-11T02:32:01.206Z,6.70
2019-01-11T02:34:33.004Z,6.70
2019-01-11T02:37:04.802Z,6.70
2019-01-11T02:39:36.582Z,6.70
2019-01-11T02:42:08.251Z,6.70
2019-01-11T02:44:40.025Z,6.70
2019-01-11T02:47:11.736Z,6.70
2019-01-11T02:49:43.818Z,6.70
2019-01-11T02:52:15.515Z,6.70
2019-01-11T02:54:47.186Z,6.70
2019-01-11T02:57:18.990Z,6.70
2019-01-11T02:59:50.693Z,6.70
2019-01-11T03:02:22.620Z,6.70
2019-01-11T03:04:54.312Z,6.70
2019-01-11T03:07:26.008Z,6.70
2019-01-11T03:09:57.672Z,6.70
2019-01-11T03:12:29.354Z,6.70
2019-01-11T03:15:01.035Z,6.70
2019-01-11T03:17:32.735Z,6.70
2019-01-11T03:20:05.192Z,6.70
2019-01-11T03:22:36.870Z,6.70
2019-01-11T03:25:08.783Z,6.70
2019-01-11T03:27:40.568Z,6.70
2019-01-11T03:30:14.809Z,6.70
2019-01-11T03:32:46.680Z,6.70
2019-01-11T03:35:22.918Z,6.70
2019-01-11T03:37:54.695Z,6.70
2019-01-11T03:40:27.260Z,6.70
2019-01-11T03:42:58.997Z,6.70
2019-01-11T03:45:30.686Z,6.70
2019-01-11T03:48:02.653Z,6.70
2019-01-11T03:50:34.332Z,6.70
2019-01-11T03:53:05.988Z,6.70
2019-01-11T03:55:37.687Z,6.70
2019-01-11T03:58:09.428Z,6.70
2019-01-11T04:00:41.231Z,6.70
2019-01-11T04:03:12.931Z,6.70
2019-01-11T04:05:44.692Z,6.70
2019-01-11T04:08:16.379Z,6.70
2019-01-11T04:10:48.073Z,6.70
2019-01-11T04:13:19.857Z,6.80
2019-01-11T04:15:51.505Z,6.80
2019-01-11T04:18:31.679Z,6.70
2019-01-11T04:21:03.369Z,6.80
2019-01-11T04:23:35.164Z,6.80
2019-01-11T04:26:06.828Z,6.80
2019-01-11T04:28:38.485Z,6.80
2019-01-11T04:31:10.169Z,6.80
2019-01-11T04:33:41.894Z,6.80
2019-01-11T04:36:13.635Z,6.90
2019-01-11T04:38:45.316Z,6.80
2019-01-11T04:41:17.076Z,6.90
2019-01-11T04:43:48.810Z,6.90
2019-01-11T04:46:20.599Z,6.90
2019-01-11T04:48:52.322Z,6.90
2019-01-11T04:51:24.027Z,6.90
2019-01-11T04:53:55.723Z,7.00
2019-01-11T04:56:27.509Z,7.00
2019-01-11T04:58:59.257Z,7.00
2019-01-11T05:01:30.943Z,7.00
2019-01-11T05:04:04.092Z,7.00
2019-01-11T05:06:35.785Z,7.00
2019-01-11T05:09:07.774Z,7.00
2019-01-11T05:11:39.495Z,7.10
2019-01-11T05:14:11.148Z,7.10
2019-01-11T05:16:42.907Z,7.10
2019-01-11T05:19:14.565Z,7.10
2019-01-11T05:21:46.249Z,7.10
2019-01-11T05:24:18.292Z,7.20
2019-01-11T05:26:49.985Z,7.20
2019-01-11T05:29:21.649Z,7.20
2019-01-11T05:31:53.332Z,7.20
2019-01-11T05:34:25.073Z,7.20
2019-01-11T05:36:56.781Z,7.30
2019-01-11T05:39:28.439Z,7.30
2019-01-11T05:42:00.235Z,7.30
2019-01-11T05:44:31.968Z,7.30
2019-01-11T05:47:03.663Z,7.40
2019-01-11T05:49:35.372Z,7.40
2019-01-11T05:52:07.148Z,7.50
2019-01-11T05:54:38.824Z,7.50
2019-01-11T05:57:10.556Z,7.60
2019-01-11T05:59:42.242Z,7.60
2019-01-11T06:02:13.889Z,7.70
2019-01-11T06:04:47.433Z,7.70
2019-01-11T06:07:23.881Z,7.70
2019-01-11T06:09:55.554Z,7.80
2019-01-11T06:12:27.241Z,7.80
2019-01-11T06:14:58.966Z,7.90
2019-01-11T06:17:30.650Z,7.90
2019-01-11T06:20:02.330Z,8.00
2019-01-11T06:22:34.031Z,8.00
2019-01-11T06:25:06.177Z,8.10
2019-01-11T06:27:38.451Z,8.10
2019-01-11T06:30:12.441Z,8.20
2019-01-11T06:32:44.294Z,8.30
2019-01-11T06:35:16.022Z,8.30
2019-01-11T06:37:47.731Z,8.40
2019-01-11T06:40:19.411Z,8.50
2019-01-11T06:42:51.084Z,8.50
2019-01-11T06:45:22.865Z,8.60
2019-01-11T06:47:54.603Z,8.60
2019-01-11T06:50:26.273Z,8.70
2019-01-11T06:52:57.932Z,8.70
2019-01-11T06:55:29.603Z,8.70
2019-01-11T06:58:01.371Z,8.60
2019-01-11T07:00:33.079Z,8.70
2019-01-11T07:03:04.856Z,8.60
2019-01-11T07:05:36.559Z,8.60
2019-01-11T07:08:08.206Z,8.60
2019-01-11T07:10:40.045Z,8.70
2019-01-11T07:13:13.105Z,8.70
2019-01-11T07:15:45.434Z,8.70
2019-01-11T07:18:17.139Z,8.70
2019-01-11T07:20:53.070Z,8.60
2019-01-11T07:23:24.094Z,8.60
2019-01-11T07:25:56.052Z,8.60
2019-01-11T07:28:27.728Z,8.60
2019-01-11T07:31:11.855Z,8.70
2019-01-11T07:33:43.847Z,8.70
2019-01-11T07:36:28.971Z,8.70
2019-01-11T07:39:00.678Z,8.70
2019-01-11T07:41:32.482Z,8.70
2019-01-11T07:44:04.188Z,8.70
2019-01-11T07:46:36.014Z,8.70
2019-01-11T07:49:08.370Z,8.70
2019-01-11T07:51:40.236Z,8.90
2019-01-11T07:54:12.033Z,9.00
2019-01-11T07:56:43.844Z,9.00
2019-01-11T07:59:16.241Z,9.10
2019-01-11T08:01:47.999Z,9.00
2019-01-11T08:04:21.739Z,9.00
2019-01-11T08:06:53.593Z,9.00
2019-01-11T08:09:25.500Z,9.00
2019-01-11T08:11:58.215Z,9.00
2019-01-11T08:14:30.332Z,9.00
2019-01-11T08:17:08.853Z,9.00
2019-01-11T08:19:47.378Z,8.90
2019-01-11T08:22:40.791Z,8.90
2019-01-11T08:25:14.521Z,8.90
2019-01-11T08:27:47.953Z,8.80
2019-01-11T08:30:21.430Z,8.80
2019-01-11T08:32:53.934Z,8.80
2019-01-11T08:35:26.169Z,8.90
2019-01-11T08:37:58.726Z,8.90
2019-01-11T08:40:30.493Z,9.00
2019-01-11T08:43:02.235Z,9.00
2019-01-11T08:45:34.003Z,9.00
2019-01-11T08:48:05.740Z,9.10
2019-01-11T08:50:38.489Z,9.10
2019-01-11T08:53:10.248Z,9.10
2019-01-11T08:55:42.811Z,9.10
2019-01-11T08:58:18.430Z,9.10
2019-01-11T09:00:54.514Z,9.10
2019-01-11T09:03:32.358Z,9.20
2019-01-11T09:06:14.584Z,9.40
2019-01-11T09:08:52.692Z,9.50
2019-01-11T09:11:54.342Z,9.50
2019-01-11T09:14:58.820Z,9.60
2019-01-11T09:17:46.667Z,9.60
2019-01-11T09:20:21.054Z,9.70
2019-01-11T09:22:56.209Z,9.80
2019-01-11T09:25:38.072Z,9.80
2019-01-11T09:28:16.930Z,9.90
2019-01-11T09:30:48.784Z,9.80
2019-01-11T09:33:20.937Z,9.80
2019-01-11T09:35:52.737Z,9.80
2019-01-11T09:38:24.470Z,9.80
2019-01-11T09:40:56.288Z,9.80
2019-01-11T09:43:28.069Z,9.90
2019-01-11T09:45:59.898Z,9.90
2019-01-11T09:48:31.612Z,9.90
2019-01-11T09:51:03.581Z,10.00
2019-01-11T09:53:35.259Z,10.00
2019-01-11T09:56:06.939Z,10.10
2019-01-11T09:58:39.731Z,10.10
2019-01-11T10:01:11.581Z,10.20
2019-01-11T10:03:43.297Z,10.30
2019-01-11T10:06:15.031Z,10.40
2019-01-11T10:08:46.845Z,10.60
2019-01-11T10:11:18.597Z,10.70
2019-01-11T10:13:50.574Z,10.80
2019-01-11T10:16:23.701Z,11.00
2019-01-11T10:18:55.778Z,11.00
2019-01-11T10:21:27.528Z,11.00
2019-01-11T10:23:59.306Z,11.00
2019-01-11T10:26:31.094Z,10.90
2019-01-11T10:29:03.288Z,10.80
2019-01-11T10:31:35.034Z,10.80
2019-01-11T10:34:06.762Z,10.80
2019-01-11T10:36:38.539Z,10.80
2019-01-11T10:39:10.340Z,10.70
2019-01-11T10:41:42.078Z,10.80
2019-01-11T10:44:13.928Z,10.70
2019-01-11T10:46:49.177Z,10.70
2019-01-11T10:49:19.297Z,10.70
2019-01-11T10:51:50.986Z,10.80
2019-01-11T10:54:43.398Z,10.80
2019-01-11T10:57:15.084Z,10.80
2019-01-11T10:59:46.800Z,10.80
2019-01-11T11:02:18.484Z,10.90
2019-01-11T11:04:50.214Z,10.90
2019-01-11T11:07:22.085Z,11.10
2019-01-11T11:09:53.861Z,11.20
2019-01-11T11:12:25.632Z,11.30
2019-01-11T11:14:57.477Z,11.40
2019-01-11T11:17:29.384Z,11.40
2019-01-11T11:20:02.584Z,11.50
2019-01-11T11:22:34.669Z,11.50
2019-01-11T11:25:08.436Z,11.50
2019-01-11T11:27:40.167Z,11.60
2019-01-11T11:30:15.453Z,11.70
2019-01-11T11:32:57.514Z,11.80
2019-01-11T11:35:30.049Z,11.80
2019-01-11T11:38:02.215Z,11.80
2019-01-11T11:40:34.047Z,11.80
2019-01-11T11:43:06.079Z,11.80
2019-01-11T11:45:40.531Z,11.80
2019-01-11T11:48:12.271Z,11.70
2019-01-11T11:50:44.029Z,11.60
2019-01-11T11:53:15.762Z,11.50
2019-01-11T11:55:47.577Z,11.40
2019-01-11T11:58:19.263Z,11.30
2019-01-11T12:00:51.018Z,11.30
2019-01-11T12:03:22.728Z,11.20
2019-01-11T12:05:54.416Z,11.20
2019-01-11T12:08:26.184Z,11.20
2019-01-11T12:10:57.949Z,11.10
2019-01-11T12:13:29.652Z,11.00
2019-01-11T12:16:01.424Z,10.90
2019-01-11T12:18:33.102Z,10.90
2019-01-11T12:21:04.930Z,10.80
2019-01-11T12:23:38.704Z,10.80
2019-01-11T12:26:10.566Z,10.70
2019-01-11T12:28:55.079Z,10.70
2019-01-11T12:31:33.016Z,10.70
2019-01-11T12:34:05.292Z,10.70
2019-01-11T12:36:38.094Z,10.70
2019-01-11T12:39:10.104Z,10.70
2019-01-11T12:41:44.808Z,10.60
2019-01-11T12:44:15.815Z,10.60
2019-01-11T12:46:59.547Z,10.60
2019-01-11T12:49:32.825Z,10.60
2019-01-11T12:52:05.596Z,10.60
2019-01-11T12:54:39.185Z,10.60
2019-01-11T12:57:11.145Z,10.60
2019-01-11T12:59:44.395Z,10.60
2019-01-11T13:02:19.531Z,10.70
2019-01-11T13:04:57.485Z,10.60
2019-01-11T13:07:29.221Z,10.40
2019-01-11T13:10:10.346Z,10.30
2019-01-11T13:12:45.984Z,10.30
2019-01-11T13:15:19.884Z,10.20
2019-01-11T13:17:51.631Z,10.10
2019-01-11T13:20:23.933Z,10.10
2019-01-11T13:22:55.745Z,10.10
2019-01-11T13:25:32.069Z,10.30
2019-01-11T13:28:00.899Z,10.40
2019-01-11T13:30:32.598Z,10.50
2019-01-11T13:33:04.295Z,10.50
2019-01-11T13:35:35.979Z,10.40
2019-01-11T13:38:07.628Z,10.30
2019-01-11T13:40:39.339Z,10.30
2019-01-11T13:43:11.016Z,10.20
2019-01-11T13:45:43.106Z,10.20
2019-01-11T13:48:14.766Z,10.20
2019-01-11T13:50:46.444Z,10.20
2019-01-11T13:53:19.748Z,10.20
2019-01-11T13:55:51.445Z,10.20
2019-01-11T13:58:23.103Z,10.20
2019-01-11T14:00:55.166Z,10.10
2019-01-11T14:03:27.027Z,10.10
2019-01-11T14:06:18.384Z,10.00
2019-01-11T14:08:50.136Z,10.00
2019-01-11T14:11:22.000Z,10.00
2019-01-11T14:13:53.689Z,10.00
2019-01-11T14:16:25.433Z,10.00
2019-01-11T14:18:57.187Z,10.00
2019-01-11T14:21:28.963Z,10.00
2019-01-11T14:24:00.991Z,9.90
2019-01-11T14:26:32.771Z,9.90
2019-01-11T14:29:04.576Z,9.80
2019-01-11T14:31:36.263Z,9.80
2019-01-11T14:34:08.013Z,9.70
2019-01-11T14:36:40.843Z,9.70
2019-01-11T14:39:13.727Z,9.70
2019-01-11T14:41:45.880Z,9.60
2019-01-11T14:44:19.002Z,9.60
2019-01-11T14:46:50.812Z,9.70
2019-01-11T14:49:22.561Z,9.70
2019-01-11T14:51:54.228Z,9.70
2019-01-11T14:54:25.951Z,9.70
2019-01-11T14:56:57.667Z,9.60
2019-01-11T14:59:29.556Z,9.70
2019-01-11T15:02:01.426Z,9.70
2019-01-11T15:04:33.118Z,9.70
2019-01-11T15:07:04.875Z,9.70
2019-01-11T15:09:36.541Z,9.80
2019-01-11T15:12:09.010Z,9.80
2019-01-11T15:14:40.782Z,9.80
2019-01-11T15:17:13.427Z,9.80
2019-01-11T15:19:52.608Z,9.80
2019-01-11T15:22:26.759Z,9.80
2019-01-11T15:25:07.326Z,9.80
2019-01-11T15:27:39.116Z,9.70
2019-01-11T15:30:14.101Z,9.70
2019-01-11T15:32:45.966Z,9.60
2019-01-11T15:35:18.078Z,9.60
2019-01-11T15:37:49.788Z,9.60
2019-01-11T15:40:29.433Z,9.60
2019-01-11T15:43:02.866Z,9.60
2019-01-11T15:45:35.697Z,9.60
2019-01-11T15:48:09.109Z,9.60
2019-01-11T15:51:01.800Z,9.60
2019-01-11T15:53:39.901Z,9.60
2019-01-11T15:56:13.060Z,9.60
2019-01-11T15:58:44.747Z,9.60
2019-01-11T16:01:16.415Z,9.60
2019-01-11T16:03:48.191Z,9.60
2019-01-11T16:06:34.398Z,9.50
2019-01-11T16:09:30.095Z,9.50
2019-01-11T16:12:04.935Z,9.50
2019-01-11T16:14:45.715Z,9.50
2019-01-11T16:17:18.122Z,9.50
2019-01-11T16:19:49.876Z,9.50
2019-01-11T16:22:21.800Z,9.50
2019-01-11T16:24:53.524Z,9.40
2019-01-11T16:27:25.304Z,9.30
2019-01-11T16:29:56.968Z,9.30
2019-01-11T16:32:28.729Z,9.20
2019-01-11T16:35:00.522Z,9.20
2019-01-11T16:37:33.393Z,9.20
2019-01-11T16:40:07.362Z,9.20
2019-01-11T16:42:39.137Z,9.20
2019-01-11T16:45:12.368Z,9.20
2019-01-11T16:47:44.054Z,9.20
2019-01-11T16:50:15.932Z,9.20
2019-01-11T16:52:47.651Z,9.20
2019-01-11T16:55:19.318Z,9.20
2019-01-11T16:57:50.986Z,9.10
2019-01-11T17:00:22.642Z,9.10
2019-01-11T17:02:54.418Z,9.00
2019-01-11T17:05:26.129Z,9.00
2019-01-11T17:07:57.898Z,9.00
2019-01-11T17:10:29.563Z,9.00
2019-01-11T17:13:01.690Z,9.00
2019-01-11T17:15:33.468Z,9.00
2019-01-11T17:18:07.153Z,9.00
2019-01-11T17:20:38.863Z,8.90
2019-01-11T17:23:10.569Z,8.90
2019-01-11T17:25:42.430Z,8.90
2019-01-11T17:28:14.175Z,8.80
2019-01-11T17:30:45.919Z,8.80
2019-01-11T17:33:17.667Z,8.90
2019-01-11T17:35:49.407Z,8.80
2019-01-11T17:38:21.107Z,8.80
2019-01-11T17:40:52.805Z,8.70
2019-01-11T17:43:24.508Z,8.60
2019-01-11T17:45:56.215Z,8.60
2019-01-11T17:48:27.970Z,8.60
2019-01-11T17:50:59.655Z,8.50
2019-01-11T17:53:31.369Z,8.50
2019-01-11T17:56:03.114Z,8.40
2019-01-11T17:58:34.903Z,8.40
2019-01-11T18:01:06.570Z,8.30
2019-01-11T18:03:38.427Z,8.30
2019-01-11T18:06:10.117Z,8.20
2019-01-11T18:08:41.794Z,8.30
2019-01-11T18:11:13.581Z,8.20
2019-01-11T18:13:45.332Z,8.20
2019-01-11T18:16:17.101Z,8.20
2019-01-11T18:18:48.907Z,8.20
2019-01-11T18:21:20.615Z,8.20
2019-01-11T18:23:52.333Z,8.20
2019-01-11T18:26:24.087Z,8.20
2019-01-11T18:28:55.763Z,8.10
2019-01-11T18:31:27.472Z,8.10
2019-01-11T18:33:59.148Z,8.00
2019-01-11T18:36:30.862Z,8.00
2019-01-11T18:39:02.949Z,7.90
2019-01-11T18:41:34.627Z,7.90
2019-01-11T18:44:06.389Z,7.80
2019-01-11T18:46:38.063Z,7.70
2019-01-11T18:49:09.830Z,7.70
2019-01-11T18:51:44.537Z,7.60
2019-01-11T18:54:16.631Z,7.60
2019-01-11T18:56:48.342Z,7.60
2019-01-11T18:59:20.207Z,7.60
2019-01-11T19:01:51.917Z,7.60
2019-01-11T19:04:23.793Z,7.60
2019-01-11T19:06:55.598Z,7.50
2019-01-11T19:09:27.301Z,7.50
2019-01-11T19:11:59.092Z,7.50
2019-01-11T19:14:30.886Z,7.50
2019-01-11T19:17:02.587Z,7.50
2019-01-11T19:19:34.554Z,7.50
2019-01-11T19:22:06.328Z,7.50
2019-01-11T19:24:38.098Z,7.50
2019-01-11T19:27:09.818Z,7.50
2019-01-11T19:29:41.562Z,7.50
2019-01-11T19:32:13.358Z,7.50
2019-01-11T19:34:51.874Z,7.60
2019-01-11T19:37:23.608Z,7.60
2019-01-11T19:39:55.624Z,7.60
2019-01-11T19:42:27.365Z,7.60
2019-01-11T19:44:59.031Z,7.60
2019-01-11T19:47:30.741Z,7.60
2019-01-11T19:50:02.475Z,7.60
2019-01-11T19:52:34.250Z,7.60
2019-01-11T19:55:06.626Z,7.60
2019-01-11T19:57:38.328Z,7.70
2019-01-11T20:00:17.182Z,7.70
2019-01-11T20:02:50.667Z,7.70
2019-01-11T20:05:22.694Z,7.80
2019-01-11T20:07:54.835Z,7.80
2019-01-11T20:10:33.877Z,7.80
2019-01-11T20:13:06.151Z,7.90
2019-01-11T20:15:37.901Z,7.90
2019-01-11T20:18:09.573Z,8.00
2019-01-11T20:20:41.277Z,8.00
2019-01-11T20:23:12.956Z,8.00
2019-01-11T20:25:44.722Z,8.00
2019-01-11T20:28:16.374Z,8.10
2019-01-11T20:30:48.059Z,8.10
2019-01-11T20:33:19.923Z,8.10
2019-01-11T20:35:51.677Z,8.10
2019-01-11T20:38:23.343Z,8.20
2019-01-11T20:40:55.119Z,8.20
2019-01-11T20:43:26.885Z,8.20
2019-01-11T20:46:03.091Z,8.20
2019-01-11T20:48:32.037Z,8.20
2019-01-11T20:51:03.813Z,8.20
2019-01-11T20:53:41.380Z,8.20
2019-01-11T20:56:09.020Z,8.30
2019-01-11T20:58:40.733Z,8.30
2019-01-11T21:01:13.836Z,8.30
2019-01-11T21:03:45.544Z,8.30
2019-01-11T21:06:17.368Z,8.40
2019-01-11T21:08:49.070Z,8.40
2019-01-11T21:11:20.760Z,8.40
2019-01-11T21:13:52.440Z,8.40
2019-01-11T21:16:24.108Z,8.40
2019-01-11T21:18:55.876Z,8.40
2019-01-11T21:21:27.600Z,8.40
2019-01-11T21:23:59.276Z,8.50
2019-01-11T21:26:30.994Z,8.50
2019-01-11T21:29:02.743Z,8.50
2019-01-11T21:31:34.438Z,8.50
2019-01-11T21:34:06.150Z,8.50
2019-01-11T21:36:37.844Z,8.50
2019-01-11T21:39:09.521Z,8.50
2019-01-11T21:41:41.263Z,8.50
2019-01-11T21:44:12.993Z,8.50
2019-01-11T21:46:44.683Z,8.50
2019-01-11T21:49:16.417Z,8.50
2019-01-11T21:51:48.121Z,8.50
2019-01-11T21:54:19.800Z,8.50
2019-01-11T21:56:51.604Z,8.50
2019-01-11T21:59:23.365Z,8.50
2019-01-11T22:01:55.081Z,8.40
2019-01-11T22:04:26.767Z,8.50
2019-01-11T22:06:58.664Z,8.50
2019-01-11T22:09:30.417Z,8.50
2019-01-11T22:12:02.110Z,8.40
2019-01-11T22:14:33.767Z,8.40
2019-01-11T22:17:05.438Z,8.40
2019-01-11T22:19:37.108Z,8.40
2019-01-11T22:22:08.802Z,8.40
2019-01-11T22:24:40.470Z,8.40
2019-01-11T22:27:12.150Z,8.30
2019-01-11T22:29:43.818Z,8.40
2019-01-11T22:32:15.592Z,8.40
2019-01-11T22:34:47.370Z,8.40
2019-01-11T22:37:20.574Z,8.50
2019-01-11T22:39:52.244Z,8.40
2019-01-11T22:42:23.963Z,8.50
2019-01-11T22:44:55.746Z,8.50
2019-01-11T22:47:27.439Z,8.40
2019-01-11T22:49:59.112Z,8.50
2019-01-11T22:52:30.820Z,8.50
2019-01-11T22:55:02.594Z,8.50
2019-01-11T22:57:34.348Z,8.50
2019-01-11T23:00:44.485Z,8.50
2019-01-11T23:03:22.975Z,8.50
2019-01-11T23:05:58.766Z,8.50
2019-01-11T23:08:30.556Z,8.50
2019-01-11T23:11:42.281Z,8.50
2019-01-11T23:14:14.039Z,8.50
2019-01-11T23:17:23.327Z,8.60
2019-01-11T23:19:55.053Z,8.50
2019-01-11T23:22:26.816Z,8.60
2019-01-11T23:24:58.580Z,8.60
2019-01-11T23:27:30.267Z,8.60
2019-01-11T23:30:01.944Z,8.50
2019-01-11T23:32:34.269Z,8.50
2019-01-11T23:35:06.319Z,8.50
2019-01-11T23:37:38.063Z,8.50
2019-01-11T23:40:11.789Z,8.50
2019-01-11T23:42:43.556Z,8.50
2019-01-11T23:45:15.294Z,8.50
2019-01-11T23:47:47.028Z,8.50
2019-01-11T23:50:18.751Z,8.50
2019-01-11T23:52:50.439Z,8.50
2019-01-11T23:55:22.097Z,8.50
2019-01-11T23:57:53.769Z,8.50
